sensor_id;sensor_type;location;lat;lon;timestamp;temperature;humidity
20366;DHT22;10341;49.894;8.822;2023-07-31T00:00:51;18.70;99.90
20366;DHT22;10341;49.894;8.822;2023-07-31T00:06:11;18.60;99.90
20366;DHT22;10341;49.894;8.822;2023-07-31T00:11:30;18.60;99.90
20366;DHT22;10341;49.894;8.822;2023-07-31T00:16:50;18.50;99.90
20366;DHT22;10341;49.894;8.822;2023-07-31T00:22:09;18.50;99.90
20366;DHT22;10341;49.894;8.822;2023-07-31T00:27:28;18.40;99.90
20366;DHT22;10341;49.894;8.822;2023-07-31T00:32:48;18.50;99.90
20366;DHT22;10341;49.894;8.822;2023-07-31T00:38:07;18.50;99.90
20366;DHT22;10341;49.894;8.822;2023-07-31T00:43:26;18.50;99.90
20366;DHT22;10341;49.894;8.822;2023-07-31T00:48:46;18.60;99.90
20366;DHT22;10341;49.894;8.822;2023-07-31T00:54:06;18.50;99.90
20366;DHT22;10341;49.894;8.822;2023-07-31T00:59:25;18.60;99.90
20366;DHT22;10341;49.894;8.822;2023-07-31T01:04:45;18.60;99.90
20366;DHT22;10341;49.894;8.822;2023-07-31T01:10:16;18.60;99.90
20366;DHT22;10341;49.894;8.822;2023-07-31T01:15:38;18.60;99.90
20366;DHT22;10341;49.894;8.822;2023-07-31T01:21:06;18.60;99.90
20366;DHT22;10341;49.894;8.822;2023-07-31T01:26:34;18.70;99.90
20366;DHT22;10341;49.894;8.822;2023-07-31T01:31:56;18.70;99.90
20366;DHT22;10341;49.894;8.822;2023-07-31T01:37:17;18.80;99.90
20366;DHT22;10341;49.894;8.822;2023-07-31T01:42:36;18.70;99.90
20366;DHT22;10341;49.894;8.822;2023-07-31T01:47:56;18.70;99.90
20366;DHT22;10341;49.894;8.822;2023-07-31T01:53:16;18.70;99.90
20366;DHT22;10341;49.894;8.822;2023-07-31T01:58:35;18.70;99.90
20366;DHT22;10341;49.894;8.822;2023-07-31T02:03:55;18.80;99.90
20366;DHT22;10341;49.894;8.822;2023-07-31T02:09:15;18.70;99.90
20366;DHT22;10341;49.894;8.822;2023-07-31T02:14:35;18.80;99.90
20366;DHT22;10341;49.894;8.822;2023-07-31T02:19:54;18.70;99.90
20366;DHT22;10341;49.894;8.822;2023-07-31T02:25:14;18.80;99.90
20366;DHT22;10341;49.894;8.822;2023-07-31T02:30:33;18.70;99.90
20366;DHT22;10341;49.894;8.822;2023-07-31T02:35:52;18.50;99.90
20366;DHT22;10341;49.894;8.822;2023-07-31T02:41:12;18.50;99.90
20366;DHT22;10341;49.894;8.822;2023-07-31T02:46:31;18.40;99.90
20366;DHT22;10341;49.894;8.822;2023-07-31T02:51:51;18.30;99.90
20366;DHT22;10341;49.894;8.822;2023-07-31T02:57:10;18.30;99.90
20366;DHT22;10341;49.894;8.822;2023-07-31T03:02:29;18.30;99.90
20366;DHT22;10341;49.894;8.822;2023-07-31T03:07:48;18.20;99.90
20366;DHT22;10341;49.894;8.822;2023-07-31T03:13:08;18.10;99.90
20366;DHT22;10341;49.894;8.822;2023-07-31T03:18:27;18.10;99.90
20366;DHT22;10341;49.894;8.822;2023-07-31T03:23:46;18.10;99.90
20366;DHT22;10341;49.894;8.822;2023-07-31T03:29:05;18.10;99.90
20366;DHT22;10341;49.894;8.822;2023-07-31T03:34:24;18.10;99.90
20366;DHT22;10341;49.894;8.822;2023-07-31T03:39:43;18.10;99.90
20366;DHT22;10341;49.894;8.822;2023-07-31T03:45:03;18.10;99.90
20366;DHT22;10341;49.894;8.822;2023-07-31T03:50:23;18.00;99.90
20366;DHT22;10341;49.894;8.822;2023-07-31T03:55:44;18.00;99.90
20366;DHT22;10341;49.894;8.822;2023-07-31T04:01:03;17.90;99.90
20366;DHT22;10341;49.894;8.822;2023-07-31T04:06:22;17.90;99.90
20366;DHT22;10341;49.894;8.822;2023-07-31T04:11:42;17.80;99.90
20366;DHT22;10341;49.894;8.822;2023-07-31T04:17:01;17.60;99.90
20366;DHT22;10341;49.894;8.822;2023-07-31T04:22:21;17.40;99.90
20366;DHT22;10341;49.894;8.822;2023-07-31T04:27:40;17.20;99.90
20366;DHT22;10341;49.894;8.822;2023-07-31T04:33:00;17.10;99.90
20366;DHT22;10341;49.894;8.822;2023-07-31T04:38:22;17.10;99.90
20366;DHT22;10341;49.894;8.822;2023-07-31T04:43:41;17.10;99.90
20366;DHT22;10341;49.894;8.822;2023-07-31T04:49:01;17.20;99.90
20366;DHT22;10341;49.894;8.822;2023-07-31T04:54:20;17.30;99.90
20366;DHT22;10341;49.894;8.822;2023-07-31T04:59:39;17.30;99.90
20366;DHT22;10341;49.894;8.822;2023-07-31T05:04:58;17.40;99.90
20366;DHT22;10341;49.894;8.822;2023-07-31T05:10:18;17.50;99.90
20366;DHT22;10341;49.894;8.822;2023-07-31T05:15:37;17.70;99.90
20366;DHT22;10341;49.894;8.822;2023-07-31T05:20:56;17.90;99.90
20366;DHT22;10341;49.894;8.822;2023-07-31T05:26:15;18.00;99.90
20366;DHT22;10341;49.894;8.822;2023-07-31T05:31:35;18.10;99.90
20366;DHT22;10341;49.894;8.822;2023-07-31T05:36:54;18.20;99.90
20366;DHT22;10341;49.894;8.822;2023-07-31T05:42:13;18.30;99.90
20366;DHT22;10341;49.894;8.822;2023-07-31T05:47:33;18.30;99.90
20366;DHT22;10341;49.894;8.822;2023-07-31T05:52:53;18.40;99.90
20366;DHT22;10341;49.894;8.822;2023-07-31T05:58:12;18.50;99.90
20366;DHT22;10341;49.894;8.822;2023-07-31T06:03:31;18.60;99.90
20366;DHT22;10341;49.894;8.822;2023-07-31T06:08:51;18.70;99.90
20366;DHT22;10341;49.894;8.822;2023-07-31T06:14:10;18.80;99.90
20366;DHT22;10341;49.894;8.822;2023-07-31T06:19:29;18.80;99.90
20366;DHT22;10341;49.894;8.822;2023-07-31T06:24:48;18.80;99.90
20366;DHT22;10341;49.894;8.822;2023-07-31T06:30:08;18.80;99.90
20366;DHT22;10341;49.894;8.822;2023-07-31T06:35:27;19.00;99.90
20366;DHT22;10341;49.894;8.822;2023-07-31T06:40:46;19.10;99.90
20366;DHT22;10341;49.894;8.822;2023-07-31T06:46:06;19.40;99.90
20366;DHT22;10341;49.894;8.822;2023-07-31T06:51:26;19.60;99.90
20366;DHT22;10341;49.894;8.822;2023-07-31T06:56:45;19.70;99.90
20366;DHT22;10341;49.894;8.822;2023-07-31T07:02:05;19.80;99.90
20366;DHT22;10341;49.894;8.822;2023-07-31T07:07:24;20.00;99.90
20366;DHT22;10341;49.894;8.822;2023-07-31T07:12:43;20.40;99.90
20366;DHT22;10341;49.894;8.822;2023-07-31T07:18:02;20.50;99.90
20366;DHT22;10341;49.894;8.822;2023-07-31T07:23:22;20.60;99.90
20366;DHT22;10341;49.894;8.822;2023-07-31T07:28:41;20.30;99.90
20366;DHT22;10341;49.894;8.822;2023-07-31T07:34:00;20.40;99.90
20366;DHT22;10341;49.894;8.822;2023-07-31T07:39:21;20.90;99.90
20366;DHT22;10341;49.894;8.822;2023-07-31T07:44:40;21.40;99.90
20366;DHT22;10341;49.894;8.822;2023-07-31T07:50:03;21.90;99.90
20366;DHT22;10341;49.894;8.822;2023-07-31T07:55:22;21.70;99.90
20366;DHT22;10341;49.894;8.822;2023-07-31T08:00:41;21.30;99.90
20366;DHT22;10341;49.894;8.822;2023-07-31T08:06:01;20.90;99.90
20366;DHT22;10341;49.894;8.822;2023-07-31T08:11:20;20.80;99.90
20366;DHT22;10341;49.894;8.822;2023-07-31T08:16:41;21.20;99.90
20366;DHT22;10341;49.894;8.822;2023-07-31T08:22:00;21.70;99.90
20366;DHT22;10341;49.894;8.822;2023-07-31T08:27:19;22.00;99.90
20366;DHT22;10341;49.894;8.822;2023-07-31T08:32:38;22.10;99.90
20366;DHT22;10341;49.894;8.822;2023-07-31T08:37:57;22.00;99.90
20366;DHT22;10341;49.894;8.822;2023-07-31T08:43:16;22.40;99.90
20366;DHT22;10341;49.894;8.822;2023-07-31T08:48:37;22.80;99.90
20366;DHT22;10341;49.894;8.822;2023-07-31T08:53:57;22.70;99.90
20366;DHT22;10341;49.894;8.822;2023-07-31T08:59:17;23.00;99.90
20366;DHT22;10341;49.894;8.822;2023-07-31T09:04:38;23.10;99.90
20366;DHT22;10341;49.894;8.822;2023-07-31T09:09:57;22.50;99.90
20366;DHT22;10341;49.894;8.822;2023-07-31T09:15:17;22.60;99.90
20366;DHT22;10341;49.894;8.822;2023-07-31T09:20:37;22.60;99.90
20366;DHT22;10341;49.894;8.822;2023-07-31T09:25:56;22.40;99.90
20366;DHT22;10341;49.894;8.822;2023-07-31T09:31:31;22.30;99.90
20366;DHT22;10341;49.894;8.822;2023-07-31T09:36:51;22.00;99.90
20366;DHT22;10341;49.894;8.822;2023-07-31T09:42:12;22.10;99.90
20366;DHT22;10341;49.894;8.822;2023-07-31T09:47:32;23.20;99.90
20366;DHT22;10341;49.894;8.822;2023-07-31T09:52:52;24.60;99.90
20366;DHT22;10341;49.894;8.822;2023-07-31T09:58:12;26.60;99.90
20366;DHT22;10341;49.894;8.822;2023-07-31T10:03:31;27.80;99.10
20366;DHT22;10341;49.894;8.822;2023-07-31T10:08:51;25.90;99.90
20366;DHT22;10341;49.894;8.822;2023-07-31T10:14:12;24.40;99.90
20366;DHT22;10341;49.894;8.822;2023-07-31T10:19:32;23.40;99.90
20366;DHT22;10341;49.894;8.822;2023-07-31T10:24:52;23.10;99.90
20366;DHT22;10341;49.894;8.822;2023-07-31T10:30:18;23.10;99.90
20366;DHT22;10341;49.894;8.822;2023-07-31T10:35:37;23.30;99.90
20366;DHT22;10341;49.894;8.822;2023-07-31T10:41:08;23.70;99.90
20366;DHT22;10341;49.894;8.822;2023-07-31T10:46:28;23.30;99.90
20366;DHT22;10341;49.894;8.822;2023-07-31T10:51:48;23.20;99.90
20366;DHT22;10341;49.894;8.822;2023-07-31T10:57:21;23.20;99.90
20366;DHT22;10341;49.894;8.822;2023-07-31T11:02:40;23.30;99.90
20366;DHT22;10341;49.894;8.822;2023-07-31T11:08:00;24.90;99.90
20366;DHT22;10341;49.894;8.822;2023-07-31T11:13:29;27.10;99.90
20366;DHT22;10341;49.894;8.822;2023-07-31T11:18:50;27.70;99.90
20366;DHT22;10341;49.894;8.822;2023-07-31T11:24:12;27.90;98.20
20366;DHT22;10341;49.894;8.822;2023-07-31T11:29:31;26.30;98.60
20366;DHT22;10341;49.894;8.822;2023-07-31T11:34:55;24.90;99.90
20366;DHT22;10341;49.894;8.822;2023-07-31T11:40:16;23.90;99.90
20366;DHT22;10341;49.894;8.822;2023-07-31T11:45:35;23.90;99.90
20366;DHT22;10341;49.894;8.822;2023-07-31T11:50:59;24.00;99.90
20366;DHT22;10341;49.894;8.822;2023-07-31T11:56:19;24.50;99.90
20366;DHT22;10341;49.894;8.822;2023-07-31T12:01:39;24.50;99.90
20366;DHT22;10341;49.894;8.822;2023-07-31T12:07:00;24.00;99.90
20366;DHT22;10341;49.894;8.822;2023-07-31T12:12:26;23.70;99.90
20366;DHT22;10341;49.894;8.822;2023-07-31T12:17:47;23.30;99.90
20366;DHT22;10341;49.894;8.822;2023-07-31T12:23:06;23.50;99.90
20366;DHT22;10341;49.894;8.822;2023-07-31T12:28:26;24.00;99.90
20366;DHT22;10341;49.894;8.822;2023-07-31T12:33:48;24.90;99.90
20366;DHT22;10341;49.894;8.822;2023-07-31T12:39:08;25.30;99.90
20366;DHT22;10341;49.894;8.822;2023-07-31T12:44:28;25.50;99.90
20366;DHT22;10341;49.894;8.822;2023-07-31T12:49:47;24.50;99.90
20366;DHT22;10341;49.894;8.822;2023-07-31T12:55:06;23.70;99.90
20366;DHT22;10341;49.894;8.822;2023-07-31T13:00:26;23.40;99.90
20366;DHT22;10341;49.894;8.822;2023-07-31T13:05:45;23.50;99.90
20366;DHT22;10341;49.894;8.822;2023-07-31T13:11:04;23.60;99.90
20366;DHT22;10341;49.894;8.822;2023-07-31T13:16:24;23.60;99.90
20366;DHT22;10341;49.894;8.822;2023-07-31T13:21:43;23.90;99.90
20366;DHT22;10341;49.894;8.822;2023-07-31T13:27:03;24.10;99.90
20366;DHT22;10341;49.894;8.822;2023-07-31T13:32:23;24.60;99.90
20366;DHT22;10341;49.894;8.822;2023-07-31T13:37:42;24.60;99.90
20366;DHT22;10341;49.894;8.822;2023-07-31T13:43:01;24.90;99.90
20366;DHT22;10341;49.894;8.822;2023-07-31T13:48:21;25.00;99.90
20366;DHT22;10341;49.894;8.822;2023-07-31T13:53:40;25.00;99.90
20366;DHT22;10341;49.894;8.822;2023-07-31T13:58:59;25.10;99.90
20366;DHT22;10341;49.894;8.822;2023-07-31T14:04:20;25.50;99.90
20366;DHT22;10341;49.894;8.822;2023-07-31T14:09:39;25.40;99.90
20366;DHT22;10341;49.894;8.822;2023-07-31T14:14:59;24.90;99.90
20366;DHT22;10341;49.894;8.822;2023-07-31T14:20:18;24.50;99.90
20366;DHT22;10341;49.894;8.822;2023-07-31T14:25:38;24.30;99.90
20366;DHT22;10341;49.894;8.822;2023-07-31T14:30:57;24.10;99.90
20366;DHT22;10341;49.894;8.822;2023-07-31T14:36:15;24.00;99.90
20366;DHT22;10341;49.894;8.822;2023-07-31T14:41:34;23.70;99.90
20366;DHT22;10341;49.894;8.822;2023-07-31T14:46:54;23.40;99.90
20366;DHT22;10341;49.894;8.822;2023-07-31T14:52:13;23.10;99.90
20366;DHT22;10341;49.894;8.822;2023-07-31T14:57:33;22.80;99.90
20366;DHT22;10341;49.894;8.822;2023-07-31T15:02:52;22.50;99.90
20366;DHT22;10341;49.894;8.822;2023-07-31T15:08:12;22.50;99.90
20366;DHT22;10341;49.894;8.822;2023-07-31T15:13:31;22.60;99.90
20366;DHT22;10341;49.894;8.822;2023-07-31T15:18:51;22.70;99.90
20366;DHT22;10341;49.894;8.822;2023-07-31T15:24:10;22.70;99.90
20366;DHT22;10341;49.894;8.822;2023-07-31T15:29:30;22.60;99.90
20366;DHT22;10341;49.894;8.822;2023-07-31T15:34:49;22.50;99.90
20366;DHT22;10341;49.894;8.822;2023-07-31T15:40:09;22.40;99.90
20366;DHT22;10341;49.894;8.822;2023-07-31T15:45:29;22.50;99.90
20366;DHT22;10341;49.894;8.822;2023-07-31T15:50:49;22.40;99.90
20366;DHT22;10341;49.894;8.822;2023-07-31T15:56:08;22.40;99.90
20366;DHT22;10341;49.894;8.822;2023-07-31T16:01:28;22.40;99.90
20366;DHT22;10341;49.894;8.822;2023-07-31T16:06:47;22.30;99.90
20366;DHT22;10341;49.894;8.822;2023-07-31T16:12:07;22.30;99.90
20366;DHT22;10341;49.894;8.822;2023-07-31T16:17:29;22.40;99.90
20366;DHT22;10341;49.894;8.822;2023-07-31T16:22:49;22.50;99.90
20366;DHT22;10341;49.894;8.822;2023-07-31T16:28:08;22.70;99.90
20366;DHT22;10341;49.894;8.822;2023-07-31T16:33:28;22.80;99.90
20366;DHT22;10341;49.894;8.822;2023-07-31T16:38:47;22.80;99.90
20366;DHT22;10341;49.894;8.822;2023-07-31T16:44:07;22.70;99.90
20366;DHT22;10341;49.894;8.822;2023-07-31T16:49:27;22.60;99.90
20366;DHT22;10341;49.894;8.822;2023-07-31T16:54:46;22.20;99.90
20366;DHT22;10341;49.894;8.822;2023-07-31T17:00:06;21.70;99.90
20366;DHT22;10341;49.894;8.822;2023-07-31T17:05:26;21.30;99.90
20366;DHT22;10341;49.894;8.822;2023-07-31T17:10:45;20.70;99.90
20366;DHT22;10341;49.894;8.822;2023-07-31T17:16:05;20.40;99.90
20366;DHT22;10341;49.894;8.822;2023-07-31T17:21:25;20.10;99.90
20366;DHT22;10341;49.894;8.822;2023-07-31T17:26:45;19.70;99.90
20366;DHT22;10341;49.894;8.822;2023-07-31T17:32:04;19.40;99.90
20366;DHT22;10341;49.894;8.822;2023-07-31T17:37:24;19.10;99.90
20366;DHT22;10341;49.894;8.822;2023-07-31T17:42:43;19.00;99.90
20366;DHT22;10341;49.894;8.822;2023-07-31T17:48:02;18.90;99.90
20366;DHT22;10341;49.894;8.822;2023-07-31T17:53:22;18.70;99.90
20366;DHT22;10341;49.894;8.822;2023-07-31T17:58:41;18.70;99.90
20366;DHT22;10341;49.894;8.822;2023-07-31T18:04:00;18.60;99.90
20366;DHT22;10341;49.894;8.822;2023-07-31T18:09:20;18.50;99.90
20366;DHT22;10341;49.894;8.822;2023-07-31T18:14:39;18.50;99.90
20366;DHT22;10341;49.894;8.822;2023-07-31T18:19:59;18.50;99.90
20366;DHT22;10341;49.894;8.822;2023-07-31T18:25:18;18.50;99.90
20366;DHT22;10341;49.894;8.822;2023-07-31T18:30:38;18.50;99.90
20366;DHT22;10341;49.894;8.822;2023-07-31T18:35:57;18.40;99.90
20366;DHT22;10341;49.894;8.822;2023-07-31T18:41:16;18.50;99.90
20366;DHT22;10341;49.894;8.822;2023-07-31T18:46:36;18.50;99.90
20366;DHT22;10341;49.894;8.822;2023-07-31T18:51:55;18.50;99.90
20366;DHT22;10341;49.894;8.822;2023-07-31T18:57:14;18.50;99.90
20366;DHT22;10341;49.894;8.822;2023-07-31T19:02:34;18.50;99.90
20366;DHT22;10341;49.894;8.822;2023-07-31T19:07:53;18.50;99.90
20366;DHT22;10341;49.894;8.822;2023-07-31T19:13:12;18.60;99.90
20366;DHT22;10341;49.894;8.822;2023-07-31T19:18:32;18.60;99.90
20366;DHT22;10341;49.894;8.822;2023-07-31T19:23:51;18.60;99.90
20366;DHT22;10341;49.894;8.822;2023-07-31T19:29:10;18.60;99.90
20366;DHT22;10341;49.894;8.822;2023-07-31T19:34:31;18.60;99.90
20366;DHT22;10341;49.894;8.822;2023-07-31T19:39:50;18.60;99.90
20366;DHT22;10341;49.894;8.822;2023-07-31T19:45:11;18.60;99.90
20366;DHT22;10341;49.894;8.822;2023-07-31T19:50:31;18.50;99.90
20366;DHT22;10341;49.894;8.822;2023-07-31T19:55:51;18.60;99.90
20366;DHT22;10341;49.894;8.822;2023-07-31T20:01:10;18.60;99.90
20366;DHT22;10341;49.894;8.822;2023-07-31T20:06:30;18.60;99.90
20366;DHT22;10341;49.894;8.822;2023-07-31T20:11:49;18.70;99.90
20366;DHT22;10341;49.894;8.822;2023-07-31T20:17:08;18.70;99.90
20366;DHT22;10341;49.894;8.822;2023-07-31T20:22:27;18.60;99.90
20366;DHT22;10341;49.894;8.822;2023-07-31T20:27:48;18.60;99.90
20366;DHT22;10341;49.894;8.822;2023-07-31T20:33:07;18.70;99.90
20366;DHT22;10341;49.894;8.822;2023-07-31T20:38:26;18.70;99.90
20366;DHT22;10341;49.894;8.822;2023-07-31T20:43:45;18.70;99.90
20366;DHT22;10341;49.894;8.822;2023-07-31T20:49:05;18.70;99.90
20366;DHT22;10341;49.894;8.822;2023-07-31T20:54:24;18.40;99.90
20366;DHT22;10341;49.894;8.822;2023-07-31T20:59:44;18.20;99.90
20366;DHT22;10341;49.894;8.822;2023-07-31T21:05:03;17.90;99.90
20366;DHT22;10341;49.894;8.822;2023-07-31T21:10:22;17.80;99.90
20366;DHT22;10341;49.894;8.822;2023-07-31T21:15:42;17.70;99.90
20366;DHT22;10341;49.894;8.822;2023-07-31T21:21:02;17.50;99.90
20366;DHT22;10341;49.894;8.822;2023-07-31T21:26:21;17.50;99.90
20366;DHT22;10341;49.894;8.822;2023-07-31T21:31:41;17.40;99.90
20366;DHT22;10341;49.894;8.822;2023-07-31T21:37:00;17.30;99.90
20366;DHT22;10341;49.894;8.822;2023-07-31T21:42:19;17.20;99.90
20366;DHT22;10341;49.894;8.822;2023-07-31T21:47:38;17.10;99.90
20366;DHT22;10341;49.894;8.822;2023-07-31T21:52:57;17.10;99.90
20366;DHT22;10341;49.894;8.822;2023-07-31T21:58:16;17.00;99.90
20366;DHT22;10341;49.894;8.822;2023-07-31T22:03:36;17.00;99.90
20366;DHT22;10341;49.894;8.822;2023-07-31T22:08:56;17.00;99.90
20366;DHT22;10341;49.894;8.822;2023-07-31T22:14:15;16.90;99.90
20366;DHT22;10341;49.894;8.822;2023-07-31T22:19:34;16.90;99.90
20366;DHT22;10341;49.894;8.822;2023-07-31T22:24:53;16.90;99.90
20366;DHT22;10341;49.894;8.822;2023-07-31T22:30:13;16.90;99.90
20366;DHT22;10341;49.894;8.822;2023-07-31T22:35:32;16.90;99.90
20366;DHT22;10341;49.894;8.822;2023-07-31T22:40:51;16.90;99.90
20366;DHT22;10341;49.894;8.822;2023-07-31T22:46:11;16.90;99.90
20366;DHT22;10341;49.894;8.822;2023-07-31T22:51:30;16.90;99.90
20366;DHT22;10341;49.894;8.822;2023-07-31T22:56:49;16.90;99.90
20366;DHT22;10341;49.894;8.822;2023-07-31T23:02:08;16.90;99.90
20366;DHT22;10341;49.894;8.822;2023-07-31T23:07:28;16.90;99.90
20366;DHT22;10341;49.894;8.822;2023-07-31T23:12:47;16.90;99.90
20366;DHT22;10341;49.894;8.822;2023-07-31T23:18:06;16.80;99.90
20366;DHT22;10341;49.894;8.822;2023-07-31T23:23:25;16.90;99.90
20366;DHT22;10341;49.894;8.822;2023-07-31T23:28:45;16.90;99.90
20366;DHT22;10341;49.894;8.822;2023-07-31T23:34:03;16.90;99.90
20366;DHT22;10341;49.894;8.822;2023-07-31T23:39:23;16.90;99.90
20366;DHT22;10341;49.894;8.822;2023-07-31T23:44:42;16.90;99.90
20366;DHT22;10341;49.894;8.822;2023-07-31T23:50:01;16.90;99.90
20366;DHT22;10341;49.894;8.822;2023-07-31T23:55:20;16.90;99.90
